Time;durP1;ratioP1;P1;durP2;ratioP2;P2;SDS_P1;SDS_P2;PMS_P1;PMS_P2;Temp;Humidity;BMP_temperature;BMP_pressure;BME280_temperature;BME280_humidity;BME280_pressure;Samples;Min_cycle;Max_cycle;Signal;HPM_P1;HPM_P2
2021/03/05 00:01:16;;;;;;;5.83;3.20;;;2.50;99.90;;;;;;4953552;28;20651;-74
2021/03/05 00:03:43;;;;;;;4.97;2.73;;;2.40;99.90;;;;;;4956346;28;20213;-72
2021/03/05 00:06:10;;;;;;;6.90;2.70;;;2.40;99.90;;;;;;4955936;28;20205;-74
2021/03/05 00:08:37;;;;;;;5.10;2.93;;;2.30;99.90;;;;;;4950256;29;20299;-73
2021/03/05 00:11:04;;;;;;;7.27;2.83;;;2.30;99.90;;;;;;4953722;28;20626;-73
2021/03/05 00:13:30;;;;;;;6.83;2.90;;;2.20;99.90;;;;;;4948299;28;20319;-73
2021/03/05 00:15:57;;;;;;;7.50;2.97;;;2.20;99.90;;;;;;4950523;28;20781;-72
2021/03/05 00:18:24;;;;;;;6.40;3.10;;;2.20;99.90;;;;;;4951375;28;20210;-72
2021/03/05 00:20:53;;;;;;;5.40;2.90;;;2.30;99.90;;;;;;4947033;29;20360;-74
2021/03/05 00:23:20;;;;;;;5.97;2.87;;;2.20;99.90;;;;;;4954337;28;20572;-74
2021/03/05 00:25:48;;;;;;;7.20;2.27;;;2.20;99.90;;;;;;4950696;28;20217;-72
2021/03/05 00:28:15;;;;;;;7.80;2.43;;;2.20;99.90;;;;;;4949924;28;20201;-74
2021/03/05 00:30:41;;;;;;;4.67;2.87;;;2.20;99.90;;;;;;4951460;28;20205;-72
2021/03/05 00:33:08;;;;;;;5.37;2.90;;;2.20;99.90;;;;;;4955774;28;20316;-73
2021/03/05 00:35:35;;;;;;;5.47;2.80;;;2.10;99.90;;;;;;4953473;28;20277;-72
2021/03/05 00:38:02;;;;;;;5.20;3.10;;;2.10;99.90;;;;;;4953102;28;20541;-73
2021/03/05 00:40:28;;;;;;;8.17;3.30;;;2.10;99.90;;;;;;4951435;28;20217;-73
2021/03/05 00:42:55;;;;;;;5.07;3.33;;;2.10;99.90;;;;;;4947270;28;20234;-73
2021/03/05 00:45:23;;;;;;;8.20;4.00;;;2.20;99.90;;;;;;4953638;28;20567;-73
2021/03/05 00:47:50;;;;;;;6.17;3.20;;;2.20;99.90;;;;;;4951911;28;20655;-72
2021/03/05 00:50:19;;;;;;;7.43;3.70;;;2.30;99.90;;;;;;4952478;28;20297;-73
2021/03/05 00:52:47;;;;;;;7.20;3.20;;;2.30;99.90;;;;;;4946561;28;20290;-73
2021/03/05 00:55:14;;;;;;;6.93;3.30;;;2.30;99.90;;;;;;4958306;28;20248;-73
2021/03/05 00:57:41;;;;;;;6.07;3.13;;;2.30;99.90;;;;;;4952398;28;20214;-73
2021/03/05 01:00:10;;;;;;;9.60;3.30;;;2.20;99.90;;;;;;4947544;28;20607;-73
2021/03/05 01:02:37;;;;;;;6.07;2.90;;;2.20;99.90;;;;;;4945884;29;20240;-72
2021/03/05 01:05:05;;;;;;;5.43;3.07;;;2.20;99.90;;;;;;4948514;29;20214;-73
2021/03/05 01:07:31;;;;;;;6.47;3.30;;;2.10;99.90;;;;;;4945680;28;20292;-71
2021/03/05 01:09:59;;;;;;;6.43;3.43;;;2.10;99.90;;;;;;4949230;28;20209;-73
2021/03/05 01:12:25;;;;;;;6.53;2.83;;;2.10;99.90;;;;;;4949210;28;20674;-74
2021/03/05 01:14:53;;;;;;;5.70;3.40;;;2.10;99.90;;;;;;4948042;28;20233;-72
2021/03/05 01:17:20;;;;;;;6.43;3.00;;;2.10;99.90;;;;;;4948864;28;20308;-73
2021/03/05 01:19:47;;;;;;;6.73;2.83;;;2.10;99.90;;;;;;4948959;28;20209;-73
2021/03/05 01:22:13;;;;;;;7.73;2.93;;;2.10;99.90;;;;;;4949903;28;20237;-72
2021/03/05 01:24:39;;;;;;;7.33;3.20;;;2.10;99.90;;;;;;4950140;28;20224;-73
2021/03/05 01:27:08;;;;;;;8.13;2.80;;;2.10;99.90;;;;;;4949650;28;20213;-74
2021/03/05 01:29:34;;;;;;;5.33;2.83;;;2.10;99.90;;;;;;4949975;29;20211;-73
2021/03/05 01:32:01;;;;;;;4.30;2.60;;;2.10;99.90;;;;;;4948209;28;20211;-72
2021/03/05 01:34:27;;;;;;;7.53;2.77;;;2.10;99.90;;;;;;4949539;28;20240;-74
2021/03/05 01:36:54;;;;;;;4.37;2.77;;;2.10;99.90;;;;;;4949810;28;20209;-72
2021/03/05 01:39:21;;;;;;;7.87;3.27;;;2.10;99.90;;;;;;4951131;28;20209;-74
2021/03/05 01:41:47;;;;;;;8.77;3.07;;;2.10;99.90;;;;;;4949104;28;20315;-72
2021/03/05 01:44:15;;;;;;;6.40;3.10;;;2.20;99.90;;;;;;4949880;28;20214;-73
2021/03/05 01:46:41;;;;;;;6.87;2.73;;;2.10;99.90;;;;;;4951170;28;20316;-73
2021/03/05 01:49:08;;;;;;;5.33;2.50;;;2.10;99.90;;;;;;4953613;28;20295;-74
2021/03/05 01:51:36;;;;;;;8.00;2.90;;;2.00;99.90;;;;;;4950947;28;20260;-73
2021/03/05 01:54:04;;;;;;;3.70;2.90;;;2.10;99.90;;;;;;4952013;28;20213;-73
2021/03/05 01:56:40;;;;;;;4.63;2.50;;;2.00;99.90;;;;;;4950620;28;20241;-73
2021/03/05 01:59:09;;;;;;;6.33;2.93;;;2.00;99.90;;;;;;4945220;28;20209;-73
2021/03/05 02:01:37;;;;;;;5.63;2.53;;;2.00;99.90;;;;;;4946242;29;20260;-73
2021/03/05 02:04:08;;;;;;;5.03;2.40;;;1.90;99.90;;;;;;4953941;28;20210;-73
2021/03/05 02:06:35;;;;;;;5.23;2.57;;;2.00;99.90;;;;;;4949039;28;20209;-74
2021/03/05 02:09:02;;;;;;;5.13;3.43;;;1.90;99.90;;;;;;4949884;28;20698;-73
2021/03/05 02:11:28;;;;;;;6.27;2.60;;;1.90;99.90;;;;;;4950328;29;20215;-73
2021/03/05 02:13:57;;;;;;;5.37;2.70;;;1.90;99.90;;;;;;4947700;28;20319;-74
2021/03/05 02:16:35;;;;;;;5.70;2.70;;;1.90;99.90;;;;;;4949024;28;20241;-71
2021/03/05 02:19:14;;;;;;;5.07;3.00;;;1.90;99.90;;;;;;4953625;28;20216;-73
2021/03/05 02:22:10;;;;;;;3.97;2.43;;;1.90;99.90;;;;;;4950542;28;20367;-74
2021/03/05 02:25:18;;;;;;;3.50;2.20;;;1.90;99.90;;;;;;4946576;29;20205;-72
2021/03/05 02:28:24;;;;;;;3.83;2.10;;;2.00;99.90;;;;;;4952279;28;20669;-74
2021/03/05 02:31:12;;;;;;;5.27;2.17;;;1.90;99.90;;;;;;4936818;28;20302;-74
2021/03/05 02:33:45;;;;;;;6.47;1.87;;;2.00;99.90;;;;;;4946780;28;20322;-72
2021/03/05 02:36:16;;;;;;;6.53;2.50;;;2.00;99.90;;;;;;4951230;28;20292;-73
2021/03/05 02:38:53;;;;;;;5.33;2.80;;;1.90;99.90;;;;;;4951516;29;20252;-72
2021/03/05 02:41:21;;;;;;;7.70;3.10;;;1.90;99.90;;;;;;4952144;28;20334;-73
2021/03/05 02:43:47;;;;;;;4.50;2.47;;;1.80;99.90;;;;;;4954038;28;20650;-72
2021/03/05 02:46:14;;;;;;;5.43;3.10;;;1.80;99.90;;;;;;4954587;28;20625;-73
2021/03/05 02:48:44;;;;;;;4.83;2.73;;;1.60;99.90;;;;;;4952114;28;20666;-73
2021/03/05 02:51:13;;;;;;;4.10;2.27;;;1.80;99.90;;;;;;4947368;28;20657;-73
2021/03/05 02:53:42;;;;;;;5.83;2.70;;;1.80;99.90;;;;;;4955476;29;20213;-73
2021/03/05 02:56:13;;;;;;;5.53;2.20;;;1.80;99.90;;;;;;4956865;28;20205;-74
2021/03/05 02:58:42;;;;;;;4.03;2.20;;;1.80;99.90;;;;;;4952297;28;20210;-73
2021/03/05 03:01:12;;;;;;;4.10;2.40;;;1.80;99.90;;;;;;4951996;29;20228;-73
2021/03/05 03:03:40;;;;;;;4.77;3.33;;;1.80;99.90;;;;;;4954721;28;20213;-73
2021/03/05 03:06:09;;;;;;;4.27;2.73;;;1.80;99.90;;;;;;4951546;28;20205;-72
2021/03/05 03:08:36;;;;;;;5.13;2.53;;;1.70;99.90;;;;;;4954221;28;20328;-73
2021/03/05 03:11:03;;;;;;;3.87;2.03;;;1.70;99.90;;;;;;4952919;28;20575;-73
2021/03/05 03:13:30;;;;;;;5.63;2.00;;;1.80;99.90;;;;;;4954770;28;20237;-73
2021/03/05 03:15:58;;;;;;;3.50;1.77;;;1.80;99.90;;;;;;4952211;28;20297;-73
2021/03/05 03:18:25;;;;;;;6.60;2.20;;;1.60;99.90;;;;;;4955065;28;20297;-74
2021/03/05 03:20:55;;;;;;;5.50;2.10;;;1.60;99.90;;;;;;4947846;28;20237;-72
2021/03/05 03:23:23;;;;;;;4.43;1.83;;;1.60;99.90;;;;;;4954195;28;20217;-73
2021/03/05 03:25:51;;;;;;;4.10;2.00;;;1.60;99.90;;;;;;4951654;28;20225;-73
2021/03/05 03:28:17;;;;;;;7.37;2.17;;;1.50;99.90;;;;;;4950696;28;20328;-74
2021/03/05 03:30:43;;;;;;;4.10;1.60;;;1.50;99.90;;;;;;4951110;28;20714;-74
2021/03/05 03:33:10;;;;;;;3.13;1.77;;;1.50;99.90;;;;;;4956033;28;20236;-72
2021/03/05 03:35:37;;;;;;;5.33;2.17;;;1.40;99.90;;;;;;4954465;28;20255;-73
2021/03/05 03:38:07;;;;;;;4.07;1.60;;;1.40;99.90;;;;;;4952880;28;20209;-73
2021/03/05 03:40:35;;;;;;;4.07;1.83;;;1.40;99.90;;;;;;4954225;28;20221;-73
2021/03/05 03:43:02;;;;;;;8.03;2.37;;;1.40;99.90;;;;;;4953440;28;20269;-73
2021/03/05 03:45:31;;;;;;;5.73;2.13;;;1.30;99.90;;;;;;4957368;28;20225;-72
2021/03/05 03:47:59;;;;;;;4.30;1.80;;;1.30;99.90;;;;;;4951152;28;20240;-74
2021/03/05 03:50:30;;;;;;;3.83;2.00;;;1.30;99.90;;;;;;4953351;28;20206;-74
2021/03/05 03:53:00;;;;;;;5.03;2.30;;;1.30;99.90;;;;;;4956575;28;20730;-73
2021/03/05 03:55:28;;;;;;;5.17;2.10;;;1.20;99.90;;;;;;4950964;28;20232;-73
2021/03/05 03:57:56;;;;;;;3.37;2.13;;;1.20;99.90;;;;;;4947009;28;20268;-72
2021/03/05 04:00:24;;;;;;;4.27;2.00;;;1.30;99.90;;;;;;4954654;28;20254;-75
2021/03/05 04:02:53;;;;;;;4.70;2.30;;;1.30;99.90;;;;;;4950413;28;20218;-73
2021/03/05 04:05:22;;;;;;;5.30;2.13;;;1.40;99.90;;;;;;4952988;28;20299;-74
2021/03/05 04:07:52;;;;;;;4.83;2.57;;;1.40;99.90;;;;;;4946693;28;20216;-73
2021/03/05 04:10:19;;;;;;;7.33;2.47;;;1.30;99.90;;;;;;4948028;28;20280;-74
2021/03/05 04:12:48;;;;;;;6.33;1.90;;;1.30;99.90;;;;;;4949777;28;20208;-73
2021/03/05 04:15:16;;;;;;;5.47;1.87;;;1.30;99.90;;;;;;4951448;29;20239;-74
2021/03/05 04:17:42;;;;;;;7.83;2.60;;;1.30;99.90;;;;;;4948664;28;20304;-73
2021/03/05 04:20:13;;;;;;;6.87;2.30;;;1.30;99.90;;;;;;4950054;28;20597;-73
2021/03/05 04:22:40;;;;;;;7.43;2.70;;;1.30;99.90;;;;;;4952406;28;20229;-73
2021/03/05 04:25:08;;;;;;;5.53;2.43;;;1.20;99.90;;;;;;4952190;28;20212;-72
2021/03/05 04:27:35;;;;;;;7.17;2.83;;;1.20;99.90;;;;;;4951237;28;20304;-73
2021/03/05 04:30:03;;;;;;;7.73;2.60;;;1.20;99.90;;;;;;4952243;28;20236;-73
2021/03/05 04:32:29;;;;;;;4.53;2.50;;;1.10;99.90;;;;;;4950276;29;20205;-74
2021/03/05 04:34:56;;;;;;;6.23;2.43;;;1.10;99.90;;;;;;4952189;28;20205;-74
2021/03/05 04:37:22;;;;;;;5.27;2.10;;;1.00;99.90;;;;;;4952980;28;20213;-74
2021/03/05 04:39:49;;;;;;;4.97;3.07;;;1.00;99.90;;;;;;4945993;28;20240;-73
2021/03/05 04:42:15;;;;;;;5.13;2.83;;;0.90;99.90;;;;;;4950567;28;20272;-73
2021/03/05 04:44:42;;;;;;;6.80;2.80;;;0.90;99.90;;;;;;4954938;28;20217;-74
2021/03/05 04:47:09;;;;;;;7.53;3.10;;;0.90;99.90;;;;;;4951065;28;20580;-74
2021/03/05 04:49:36;;;;;;;5.03;3.07;;;0.90;99.90;;;;;;4951229;28;20664;-72
2021/03/05 04:52:03;;;;;;;5.73;3.30;;;0.90;99.90;;;;;;4948982;29;20220;-75
2021/03/05 04:54:29;;;;;;;5.50;3.13;;;0.90;99.90;;;;;;4949737;28;20216;-74
2021/03/05 04:56:55;;;;;;;9.03;2.93;;;0.90;99.90;;;;;;4947122;28;20280;-72
2021/03/05 04:59:22;;;;;;;4.70;3.03;;;1.00;99.90;;;;;;4950103;28;21277;-75
2021/03/05 05:01:48;;;;;;;7.03;3.13;;;1.00;99.90;;;;;;4947536;28;20240;-72
2021/03/05 05:04:16;;;;;;;5.43;3.13;;;1.00;99.90;;;;;;4950774;28;20264;-73
2021/03/05 05:06:42;;;;;;;5.13;2.43;;;0.90;99.90;;;;;;4952516;28;20304;-75
2021/03/05 05:09:09;;;;;;;5.97;2.27;;;0.90;99.90;;;;;;4951894;28;20664;-73
2021/03/05 05:11:35;;;;;;;5.07;3.20;;;0.90;99.90;;;;;;4952032;28;20209;-75
2021/03/05 05:14:02;;;;;;;6.20;3.37;;;0.90;99.90;;;;;;4949604;28;20243;-74
2021/03/05 05:16:28;;;;;;;4.10;3.40;;;0.90;99.90;;;;;;4950209;28;20218;-74
2021/03/05 05:18:55;;;;;;;7.73;4.83;;;0.90;99.90;;;;;;4951345;28;20216;-72
2021/03/05 05:21:23;;;;;;;7.80;4.40;;;0.90;99.90;;;;;;4948163;28;20241;-72
2021/03/05 05:23:49;;;;;;;8.93;3.80;;;0.90;99.90;;;;;;4949009;28;20295;-75
2021/03/05 05:26:16;;;;;;;5.23;3.53;;;1.00;99.90;;;;;;4948146;28;20212;-73
2021/03/05 05:28:42;;;;;;;6.03;3.80;;;1.00;99.90;;;;;;4949687;29;20681;-73
2021/03/05 05:31:09;;;;;;;7.03;3.80;;;1.00;99.90;;;;;;4952075;28;20667;-72
2021/03/05 05:33:35;;;;;;;6.93;4.23;;;1.00;99.90;;;;;;4953056;28;20355;-73
2021/03/05 05:36:01;;;;;;;8.60;3.43;;;1.00;99.90;;;;;;4946677;28;20205;-74
2021/03/05 05:38:29;;;;;;;5.33;3.97;;;1.00;99.90;;;;;;4949816;28;20718;-74
2021/03/05 05:40:59;;;;;;;7.33;4.77;;;0.90;99.90;;;;;;4948325;28;20210;-72
2021/03/05 05:43:30;;;;;;;8.90;3.87;;;0.90;99.90;;;;;;4951179;28;20304;-74
2021/03/05 05:46:02;;;;;;;6.13;3.80;;;1.00;99.90;;;;;;4950719;28;20213;-72
2021/03/05 05:48:29;;;;;;;10.37;3.87;;;1.00;99.90;;;;;;4947460;28;20245;-73
2021/03/05 05:50:58;;;;;;;6.53;3.50;;;1.00;99.90;;;;;;4945813;28;20249;-72
2021/03/05 05:53:30;;;;;;;5.00;3.60;;;1.00;99.90;;;;;;4950303;28;20205;-73
2021/03/05 05:55:57;;;;;;;7.37;3.90;;;1.00;99.90;;;;;;4949337;28;20220;-74
2021/03/05 05:58:24;;;;;;;9.50;4.53;;;0.90;99.90;;;;;;4956467;29;20275;-74
2021/03/05 06:00:50;;;;;;;7.80;4.37;;;0.80;99.90;;;;;;4946277;28;20252;-74
2021/03/05 06:03:17;;;;;;;7.00;4.47;;;0.80;99.90;;;;;;4954078;29;20622;-73
2021/03/05 06:05:44;;;;;;;9.00;4.23;;;0.80;99.90;;;;;;4957212;28;20213;-74
2021/03/05 06:08:10;;;;;;;8.77;4.23;;;0.80;99.90;;;;;;4954290;28;20292;-73
2021/03/05 06:10:37;;;;;;;7.60;5.47;;;0.90;99.90;;;;;;4951521;28;20676;-73
2021/03/05 06:13:04;;;;;;;8.73;4.53;;;0.90;99.90;;;;;;4953293;28;20250;-74
2021/03/05 06:15:31;;;;;;;8.47;4.63;;;0.90;99.90;;;;;;4953244;28;20213;-74
2021/03/05 06:17:57;;;;;;;7.03;4.80;;;0.90;99.90;;;;;;4954360;28;20292;-74
2021/03/05 06:20:24;;;;;;;8.63;5.23;;;1.00;99.90;;;;;;4952413;28;20232;-73
2021/03/05 06:23:06;;;;;;;11.57;5.70;;;1.00;99.90;;;;;;4952107;28;20245;-73
2021/03/05 06:25:37;;;;;;;7.37;4.50;;;1.00;99.90;;;;;;4950251;29;20217;-73
2021/03/05 06:28:14;;;;;;;6.40;4.03;;;1.10;99.90;;;;;;4945460;29;20242;-73
2021/03/05 06:30:41;;;;;;;6.57;3.90;;;1.00;99.90;;;;;;4951003;28;20226;-73
2021/03/05 06:33:25;;;;;;;6.47;4.17;;;1.10;99.90;;;;;;4947036;28;20213;-73
2021/03/05 06:35:53;;;;;;;6.10;4.60;;;1.10;99.90;;;;;;4945261;28;20241;-74
2021/03/05 06:38:44;;;;;;;10.57;5.50;;;1.20;99.90;;;;;;4947471;28;20817;-73
2021/03/05 06:41:22;;;;;;;10.87;5.30;;;1.30;99.90;;;;;;4938877;28;20217;-73
2021/03/05 06:43:50;;;;;;;9.57;5.40;;;1.40;99.90;;;;;;4937620;29;20659;-75
2021/03/05 06:46:39;;;;;;;7.07;4.23;;;1.50;99.90;;;;;;4948000;28;20213;-75
2021/03/05 06:49:07;;;;;;;7.90;4.83;;;1.60;99.90;;;;;;4947611;28;20232;-77
2021/03/05 06:51:34;;;;;;;8.87;5.57;;;1.70;99.90;;;;;;4942964;28;20265;-75
2021/03/05 06:54:09;;;;;;;8.07;5.03;;;1.80;99.90;;;;;;4950061;28;20320;-75
2021/03/05 06:56:38;;;;;;;7.87;5.53;;;2.00;99.90;;;;;;4949815;28;20247;-74
2021/03/05 06:59:09;;;;;;;9.77;5.47;;;2.10;99.90;;;;;;4949901;28;20219;-75
2021/03/05 07:01:49;;;;;;;9.13;5.10;;;2.20;99.90;;;;;;4948641;28;20321;-75
2021/03/05 07:04:18;;;;;;;6.87;5.17;;;2.20;99.90;;;;;;4943906;28;20205;-76
2021/03/05 07:06:45;;;;;;;9.93;6.20;;;2.20;99.90;;;;;;4957318;28;20210;-74
2021/03/05 07:09:22;;;;;;;8.03;5.70;;;2.20;99.90;;;;;;4944060;28;20210;-75
2021/03/05 07:11:51;;;;;;;7.90;5.93;;;2.30;99.90;;;;;;4949837;29;20216;-74
2021/03/05 07:14:18;;;;;;;9.63;5.13;;;2.40;99.90;;;;;;4946755;28;20234;-75
2021/03/05 07:16:48;;;;;;;8.90;5.13;;;2.40;99.90;;;;;;4949806;28;20301;-75
2021/03/05 07:19:16;;;;;;;9.77;5.40;;;2.50;99.90;;;;;;4953983;28;20296;-74
2021/03/05 07:21:45;;;;;;;8.43;5.80;;;2.60;99.90;;;;;;4948596;28;20249;-75
2021/03/05 07:24:13;;;;;;;9.23;5.40;;;2.70;99.90;;;;;;4953208;28;20213;-75
2021/03/05 07:26:52;;;;;;;9.37;5.43;;;2.80;99.90;;;;;;4942143;28;20281;-74
2021/03/05 07:29:21;;;;;;;11.90;6.57;;;2.90;99.90;;;;;;4949791;28;20240;-74
2021/03/05 07:32:00;;;;;;;8.20;6.03;;;3.00;99.90;;;;;;4949704;28;20638;-75
2021/03/05 07:34:28;;;;;;;13.00;6.67;;;2.90;99.90;;;;;;4941943;29;20281;-77
2021/03/05 07:36:57;;;;;;;14.67;7.63;;;3.00;99.90;;;;;;4950640;28;20247;-73
2021/03/05 07:39:27;;;;;;;10.77;7.30;;;3.00;99.90;;;;;;4951606;28;20659;-75
2021/03/05 07:41:55;;;;;;;13.50;7.67;;;3.00;99.90;;;;;;4960307;28;20233;-76
2021/03/05 07:44:24;;;;;;;9.00;6.53;;;3.20;99.90;;;;;;4945359;28;20317;-74
2021/03/05 07:46:51;;;;;;;10.30;6.47;;;3.20;99.90;;;;;;4952856;28;20296;-74
2021/03/05 07:49:24;;;;;;;10.17;6.07;;;3.30;99.90;;;;;;4952077;28;20269;-76
2021/03/05 07:51:54;;;;;;;9.33;6.33;;;3.50;99.90;;;;;;4952054;28;20228;-75
2021/03/05 07:54:44;;;;;;;9.27;6.80;;;3.60;99.90;;;;;;4955789;28;20201;-78
2021/03/05 07:57:44;;;;;;;11.07;6.40;;;3.70;99.90;;;;;;4958123;28;20683;-77
2021/03/05 08:00:14;;;;;;;10.43;6.93;;;3.70;99.90;;;;;;4952450;29;20223;-78
2021/03/05 08:02:55;;;;;;;8.87;6.37;;;3.70;99.90;;;;;;4956950;28;20230;-78
2021/03/05 08:05:39;;;;;;;8.20;6.20;;;3.70;99.90;;;;;;4952671;28;20285;-76
2021/03/05 08:08:17;;;;;;;11.07;6.70;;;3.70;99.90;;;;;;4947816;29;20218;-76
2021/03/05 08:10:46;;;;;;;9.87;6.07;;;3.80;99.90;;;;;;4948690;28;20593;-77
2021/03/05 08:13:35;;;;;;;8.40;6.57;;;4.10;99.90;;;;;;4950100;29;20220;-74
2021/03/05 08:16:36;;;;;;;12.23;5.73;;;4.40;99.90;;;;;;4953589;28;20221;-77
2021/03/05 08:19:47;;;;;;;14.20;6.07;;;4.70;99.90;;;;;;4948214;28;20211;-75
2021/03/05 08:22:15;;;;;;;18.53;6.27;;;5.10;99.90;;;;;;4940921;28;20340;-76
2021/03/05 08:24:42;;;;;;;10.63;5.63;;;5.30;99.90;;;;;;4951454;28;20225;-76
2021/03/05 08:27:14;;;;;;;8.00;4.47;;;5.60;99.90;;;;;;4945172;28;20252;-75
2021/03/05 08:30:09;;;;;;;7.97;4.10;;;5.70;99.90;;;;;;4951353;28;20300;-74
2021/03/05 08:32:52;;;;;;;8.73;4.30;;;5.90;99.90;;;;;;4952555;28;20208;-74
2021/03/05 08:35:40;;;;;;;7.67;3.80;;;6.00;99.90;;;;;;4949909;28;20240;-73
2021/03/05 08:38:08;;;;;;;7.20;3.37;;;6.20;99.90;;;;;;4953533;28;20201;-76
2021/03/05 08:40:36;;;;;;;4.77;3.20;;;6.30;99.90;;;;;;4953530;28;20209;-76
2021/03/05 08:43:24;;;;;;;6.80;3.30;;;6.50;98.90;;;;;;4952937;28;20403;-77
2021/03/05 08:45:52;;;;;;;6.27;3.13;;;6.60;97.50;;;;;;4955128;28;20290;-76
2021/03/05 08:48:36;;;;;;;7.00;3.40;;;6.70;96.70;;;;;;4952805;28;20213;-76
2021/03/05 08:51:05;;;;;;;6.03;2.90;;;6.90;95.50;;;;;;4950721;28;20210;-76
2021/03/05 08:53:45;;;;;;;5.47;2.70;;;7.10;94.60;;;;;;4951308;28;20300;-75
2021/03/05 08:56:16;;;;;;;6.87;3.13;;;7.20;93.70;;;;;;4955790;28;20205;-73
2021/03/05 08:58:43;;;;;;;11.03;3.47;;;7.30;92.50;;;;;;4949242;28;20205;-76
2021/03/05 09:01:28;;;;;;;9.83;3.33;;;7.30;91.30;;;;;;4949581;28;20216;-77
2021/03/05 09:04:08;;;;;;;6.50;2.80;;;7.40;91.40;;;;;;4952610;29;20618;-73
2021/03/05 09:06:35;;;;;;;7.00;3.17;;;7.90;91.00;;;;;;4949764;28;20295;-76
2021/03/05 09:09:09;;;;;;;6.50;2.80;;;8.40;90.10;;;;;;4948515;28;20296;-76
2021/03/05 09:11:35;;;;;;;6.87;2.73;;;8.90;87.00;;;;;;4952301;29;20208;-75
2021/03/05 09:14:20;;;;;;;7.53;3.17;;;9.10;81.70;;;;;;4954968;28;20683;-74
2021/03/05 09:16:55;;;;;;;7.90;2.80;;;9.90;93.90;;;;;;4953943;29;20209;-75
2021/03/05 09:19:34;;;;;;;3.40;2.50;;;12.10;74.00;;;;;;4954064;28;20219;-76
2021/03/05 09:22:13;;;;;;;8.07;3.10;;;15.30;64.20;;;;;;4947235;28;20288;-76
2021/03/05 09:24:58;;;;;;;4.97;2.70;;;19.30;47.20;;;;;;4949911;28;20713;-76
2021/03/05 09:27:29;;;;;;;5.83;3.10;;;21.60;39.50;;;;;;4951113;29;20221;-74
2021/03/05 09:29:56;;;;;;;8.15;2.63;;;22.30;37.80;;;;;;4955444;28;20294;-74
2021/03/05 09:32:23;;;;;;;5.93;2.80;;;23.90;36.90;;;;;;4953602;29;20203;-76
2021/03/05 09:34:55;;;;;;;3.90;2.63;;;25.00;33.50;;;;;;4955956;28;20259;-75
2021/03/05 09:37:23;;;;;;;6.55;2.83;;;24.00;30.80;;;;;;4954054;28;20742;-76
2021/03/05 09:39:51;;;;;;;4.70;2.75;;;22.20;30.70;;;;;;4950013;28;20202;-75
2021/03/05 09:42:19;;;;;;;5.68;2.67;;;20.30;32.00;;;;;;4952437;28;20225;-77
2021/03/05 09:44:47;;;;;;;4.35;2.70;;;20.90;36.70;;;;;;4944217;28;20240;-76
2021/03/05 09:47:14;;;;;;;2.88;2.35;;;23.70;33.60;;;;;;4955382;28;20209;-76
2021/03/05 09:49:43;;;;;;;4.65;2.40;;;26.80;30.00;;;;;;4959403;28;20194;-77
2021/03/05 09:52:25;;;;;;;8.48;2.78;;;29.50;27.60;;;;;;4947458;29;20201;-75
2021/03/05 09:54:54;;;;;;;4.75;2.28;;;31.70;25.70;;;;;;4952212;28;20233;-74
2021/03/05 09:57:25;;;;;;;6.07;2.03;;;33.20;23.80;;;;;;4956360;28;20214;-74
2021/03/05 09:59:51;;;;;;;5.40;2.05;;;34.10;22.30;;;;;;4952004;28;20221;-75
2021/03/05 10:02:18;;;;;;;5.28;2.30;;;34.20;22.20;;;;;;4953287;28;20252;-75
2021/03/05 10:04:45;;;;;;;5.25;2.30;;;34.90;21.70;;;;;;4952010;28;20212;-75
2021/03/05 10:07:12;;;;;;;6.13;2.00;;;35.00;21.50;;;;;;4951475;28;20333;-75
2021/03/05 10:09:38;;;;;;;3.20;1.92;;;33.50;20.90;;;;;;4949053;28;20639;-75
2021/03/05 10:12:05;;;;;;;5.97;1.85;;;32.20;21.90;;;;;;4950092;28;20577;-75
2021/03/05 10:14:35;;;;;;;6.20;1.20;;;30.60;21.20;;;;;;4949393;28;20241;-76
2021/03/05 10:17:11;;;;;;;8.70;1.38;;;28.10;21.40;;;;;;4949735;28;20276;-75
2021/03/05 10:19:39;;;;;;;9.00;1.75;;;25.00;22.50;;;;;;4951076;28;20204;-74
2021/03/05 10:22:07;;;;;;;7.13;1.63;;;22.00;24.10;;;;;;4945842;28;20323;-76
2021/03/05 10:24:34;;;;;;;5.22;1.35;;;20.20;25.70;;;;;;4950684;28;20220;-78
2021/03/05 10:27:10;;;;;;;4.88;1.38;;;20.80;28.10;;;;;;4949709;28;20668;-78
2021/03/05 10:29:43;;;;;;;10.55;1.60;;;20.80;25.00;;;;;;4945786;28;20216;-77
2021/03/05 10:32:20;;;;;;;12.23;1.50;;;19.50;25.30;;;;;;4950944;28;20614;-76
2021/03/05 10:34:47;;;;;;;3.88;1.30;;;17.90;26.20;;;;;;4944094;29;20240;-76
2021/03/05 10:37:15;;;;;;;5.37;1.00;;;16.40;27.40;;;;;;4945774;28;20213;-75
2021/03/05 10:39:46;;;;;;;3.77;1.43;;;15.90;33.50;;;;;;4949657;29;20229;-75
2021/03/05 10:42:14;;;;;;;1.33;0.93;;;18.80;29.80;;;;;;4947490;28;20312;-77
2021/03/05 10:44:43;;;;;;;1.52;1.20;;;23.10;26.40;;;;;;4954896;28;20801;-75
2021/03/05 10:47:12;;;;;;;1.70;0.95;;;27.20;23.70;;;;;;4945498;28;20317;-75
2021/03/05 10:49:40;;;;;;;1.60;1.13;;;30.90;21.60;;;;;;4946059;28;20240;-75
2021/03/05 10:52:07;;;;;;;2.67;1.23;;;34.10;20.30;;;;;;4954329;28;21333;-75
2021/03/05 10:54:34;;;;;;;1.15;1.00;;;35.30;19.00;;;;;;4949012;28;20738;-75
2021/03/05 10:57:01;;;;;;;10.70;1.33;;;33.70;18.40;;;;;;4947521;28;20264;-75
2021/03/05 10:59:27;;;;;;;5.18;1.10;;;30.80;18.00;;;;;;4942182;29;20735;-74
2021/03/05 11:01:55;;;;;;;6.80;1.25;;;27.50;19.20;;;;;;4948441;28;20281;-75
2021/03/05 11:04:26;;;;;;;4.05;1.23;;;26.10;22.90;;;;;;4947585;28;20240;-75
2021/03/05 11:06:53;;;;;;;2.63;0.88;;;27.10;22.10;;;;;;4953965;28;20213;-77
2021/03/05 11:09:20;;;;;;;3.03;1.10;;;29.20;21.80;;;;;;4952117;28;20212;-76
2021/03/05 11:11:47;;;;;;;2.60;1.20;;;31.40;20.50;;;;;;4952674;28;20213;-76
2021/03/05 11:14:15;;;;;;;2.63;1.40;;;32.50;18.80;;;;;;4957932;28;20260;-76
2021/03/05 11:16:41;;;;;;;2.17;1.17;;;30.80;18.50;;;;;;4955369;28;20448;-76
2021/03/05 11:19:09;;;;;;;3.88;1.38;;;27.90;19.60;;;;;;4954750;28;20980;-78
2021/03/05 11:21:36;;;;;;;1.60;1.20;;;24.60;20.70;;;;;;4955171;28;20251;-77
2021/03/05 11:24:03;;;;;;;1.50;1.15;;;21.40;22.20;;;;;;4951067;29;20695;-76
2021/03/05 11:26:30;;;;;;;4.32;1.38;;;18.50;23.50;;;;;;4953893;28;20300;-74
2021/03/05 11:28:57;;;;;;;2.15;1.10;;;16.40;25.10;;;;;;4953505;28;20330;-75
2021/03/05 11:31:23;;;;;;;1.08;0.77;;;17.20;29.80;;;;;;4945557;29;20262;-75
2021/03/05 11:33:50;;;;;;;2.22;0.80;;;20.50;26.30;;;;;;4948897;28;20284;-77
2021/03/05 11:36:20;;;;;;;2.97;1.00;;;24.00;24.20;;;;;;4951799;28;20256;-76
2021/03/05 11:38:49;;;;;;;4.25;1.20;;;25.30;22.30;;;;;;4952780;29;20296;-75
2021/03/05 11:41:17;;;;;;;3.67;1.20;;;24.70;21.70;;;;;;4953069;29;20224;-77
2021/03/05 11:43:46;;;;;;;2.05;1.33;;;25.20;23.60;;;;;;4951951;28;20768;-76
2021/03/05 11:46:13;;;;;;;1.17;0.90;;;28.10;22.30;;;;;;4976305;28;20209;-77
2021/03/05 11:48:40;;;;;;;2.85;0.80;;;29.30;20.10;;;;;;4949737;28;20228;-77
2021/03/05 11:51:06;;;;;;;8.23;1.15;;;27.40;20.30;;;;;;4950776;28;20660;-76
2021/03/05 11:53:34;;;;;;;19.05;1.40;;;25.00;20.30;;;;;;4946190;29;20214;-77
2021/03/05 11:56:01;;;;;;;16.35;2.25;;;22.10;21.10;;;;;;4949666;28;20268;-76
2021/03/05 11:58:27;;;;;;;6.05;1.48;;;19.50;22.30;;;;;;4950695;28;20205;-76
2021/03/05 12:00:53;;;;;;;2.45;0.88;;;18.10;26.80;;;;;;4950621;28;20212;-78
2021/03/05 12:03:20;;;;;;;1.85;0.80;;;19.10;26.20;;;;;;4950310;28;20313;-78
2021/03/05 12:05:46;;;;;;;1.53;1.00;;;19.10;23.80;;;;;;4954253;28;20265;-77
2021/03/05 12:08:13;;;;;;;1.40;1.10;;;18.20;24.00;;;;;;4954855;28;20246;-78
2021/03/05 12:10:40;;;;;;;1.65;0.90;;;18.50;25.90;;;;;;4953303;28;20284;-78
2021/03/05 12:13:07;;;;;;;2.75;1.35;;;19.50;27.00;;;;;;4958879;28;20233;-77
2021/03/05 12:15:33;;;;;;;5.72;1.00;;;22.80;25.00;;;;;;4961064;28;20220;-79
2021/03/05 12:18:00;;;;;;;7.22;1.30;;;24.00;22.60;;;;;;4956643;28;20201;-78
2021/03/05 12:20:27;;;;;;;3.88;0.77;;;25.00;22.20;;;;;;4957403;28;20200;-77
2021/03/05 12:22:53;;;;;;;3.28;0.95;;;24.10;21.10;;;;;;4956156;28;20244;-77
2021/03/05 12:25:19;;;;;;;2.53;1.02;;;22.20;21.70;;;;;;4958819;28;20210;-77
2021/03/05 12:27:48;;;;;;;2.28;1.00;;;20.00;22.50;;;;;;4956466;28;20262;-78
2021/03/05 12:30:16;;;;;;;1.77;0.80;;;18.00;23.80;;;;;;4950447;28;20304;-77
2021/03/05 12:32:44;;;;;;;2.73;1.07;;;17.20;27.60;;;;;;4953439;29;20340;-77
2021/03/05 12:35:11;;;;;;;1.65;1.00;;;20.00;26.60;;;;;;4952377;28;20265;-77
2021/03/05 12:37:38;;;;;;;0.98;0.77;;;23.90;24.10;;;;;;4952882;28;20240;-77
2021/03/05 12:40:07;;;;;;;1.05;0.68;;;27.70;22.00;;;;;;4955163;28;20714;-77
2021/03/05 12:42:33;;;;;;;2.17;0.90;;;30.20;20.00;;;;;;4948993;28;20234;-77
2021/03/05 12:45:01;;;;;;;0.77;0.77;;;29.70;18.80;;;;;;4950087;29;20209;-77
2021/03/05 12:47:28;;;;;;;1.50;0.90;;;27.40;19.30;;;;;;4947985;29;20330;-74
2021/03/05 12:49:54;;;;;;;2.58;0.70;;;24.70;20.30;;;;;;4953645;28;20858;-73
2021/03/05 12:52:21;;;;;;;1.63;0.82;;;22.20;21.30;;;;;;4941115;29;20216;-75
2021/03/05 12:54:47;;;;;;;1.73;0.73;;;20.20;22.70;;;;;;4950406;29;20205;-77
2021/03/05 12:57:14;;;;;;;1.10;0.88;;;18.50;23.90;;;;;;4952834;28;20333;-75
2021/03/05 12:59:40;;;;;;;1.77;0.82;;;19.00;25.10;;;;;;4951552;29;20244;-76
2021/03/05 13:02:08;;;;;;;2.92;1.60;;;21.80;24.90;;;;;;4948004;28;20308;-75
2021/03/05 13:04:34;;;;;;;1.90;1.20;;;25.10;23.20;;;;;;4951010;28;20213;-76
2021/03/05 13:07:00;;;;;;;11.35;1.60;;;28.20;21.50;;;;;;4950173;28;20689;-77